Time;durP1;ratioP1;P1;durP2;ratioP2;P2;SDS_P1;SDS_P2;PMS_P1;PMS_P2;Temp;Humidity;BMP_temperature;BMP_pressure;BME280_temperature;BME280_humidity;BME280_pressure;Samples;Min_cycle;Max_cycle;Signal;HPM_P1;HPM_P2
2024/04/23 00:01:22;;;;;;;;;;;;;;;4.15;nan;102501.53;5402116;26;19933;-71
2024/04/23 00:03:47;;;;;;;;;;;;;;;4.30;nan;102497.69;5405330;26;19924;-71
2024/04/23 00:06:12;;;;;;;;;;;;;;;4.26;nan;102490.94;5404906;26;19932;-71
2024/04/23 00:08:38;;;;;;;;;;;;;;;4.39;nan;102487.34;5405316;26;19965;-71
2024/04/23 00:11:03;;;;;;;;;;;;;;;4.15;nan;102492.72;5403968;26;20005;-71
2024/04/23 00:13:28;;;;;;;;;;;;;;;4.52;nan;102490.75;5400616;26;19925;-71
2024/04/23 00:15:54;;;;;;;;;;;;;;;4.40;nan;102483.75;5401711;26;19932;-71
2024/04/23 00:18:19;;;;;;;;;;;;;;;4.50;nan;102471.41;5399994;26;19939;-71
2024/04/23 00:20:44;;;;;;;;;;;;;;;4.24;nan;102473.44;5376157;26;19924;-72
2024/04/23 00:23:09;;;;;;;;;;;;;;;4.21;nan;102473.66;5402557;26;20319;-71
2024/04/23 00:25:35;;;;;;;;;;;;;;;4.16;nan;102471.34;5400321;26;20568;-71
2024/04/23 00:28:00;;;;;;;;;;;;;;;4.33;nan;102469.22;5401109;26;19925;-71
2024/04/23 00:30:25;;;;;;;;;;;;;;;4.23;nan;102471.75;5399647;26;19926;-71
2024/04/23 00:32:51;;;;;;;;;;;;;;;4.19;nan;102465.78;5398974;26;20386;-71
2024/04/23 00:35:17;;;;;;;;;;;;;;;4.14;nan;102465.34;5371415;26;19936;-71
2024/04/23 00:37:42;;;;;;;;;;;;;;;4.06;nan;102460.59;5401176;26;20359;-71
2024/04/23 00:40:07;;;;;;;;;;;;;;;4.03;nan;102452.84;5400330;26;20367;-71
2024/04/23 00:42:33;;;;;;;;;;;;;;;3.92;nan;102455.47;5376945;26;19925;-72
2024/04/23 00:44:58;;;;;;;;;;;;;;;3.88;nan;102454.03;5377332;26;20384;-72
2024/04/23 00:47:24;;;;;;;;;;;;;;;3.88;nan;102450.50;5404688;26;19925;-71
2024/04/23 00:49:49;;;;;;;;;;;;;;;4.17;nan;102441.19;5374611;26;19925;-71
2024/04/23 00:52:15;;;;;;;;;;;;;;;3.95;nan;102449.94;5396455;26;19988;-71
2024/04/23 00:54:41;;;;;;;;;;;;;;;4.00;nan;102449.59;5399697;26;20259;-71
2024/04/23 00:57:06;;;;;;;;;;;;;;;4.17;nan;102454.47;5399781;26;19979;-72
2024/04/23 00:59:32;;;;;;;;;;;;;;;3.98;nan;102430.28;5398225;26;19932;-71
2024/04/23 01:01:57;;;;;;;;;;;;;;;4.14;nan;102444.09;5397950;26;19924;-72
2024/04/23 01:04:22;;;;;;;;;;;;;;;4.11;nan;102446.97;5378230;26;19935;-71
2024/04/23 01:06:49;;;;;;;;;;;;;;;4.05;nan;102442.09;5399468;26;19932;-71
2024/04/23 01:09:15;;;;;;;;;;;;;;;4.08;nan;102447.22;5377475;26;20150;-71
2024/04/23 01:11:40;;;;;;;;;;;;;;;4.07;nan;102440.19;5373515;26;20024;-71
2024/04/23 01:14:07;;;;;;;;;;;;;;;4.08;nan;102439.25;5394980;26;20406;-71
2024/04/23 01:16:34;;;;;;;;;;;;;;;4.00;nan;102426.53;5364675;26;20355;-71
2024/04/23 01:19:01;;;;;;;;;;;;;;;4.06;nan;102436.69;5395703;26;20365;-72
2024/04/23 01:21:33;;;;;;;;;;;;;;;4.15;nan;102439.63;5371393;26;19936;-72
2024/04/23 01:24:02;;;;;;;;;;;;;;;4.14;nan;102444.09;5368407;26;19944;-71
2024/04/23 01:26:28;;;;;;;;;;;;;;;4.11;nan;102433.69;5396530;26;20540;-71
2024/04/23 01:28:54;;;;;;;;;;;;;;;4.08;nan;102433.94;5396191;26;19942;-71
2024/04/23 01:31:19;;;;;;;;;;;;;;;4.02;nan;102439.69;5368853;26;19926;-72
2024/04/23 01:33:46;;;;;;;;;;;;;;;4.05;nan;102435.00;5369512;26;19932;-72
2024/04/23 01:36:12;;;;;;;;;;;;;;;3.94;nan;102436.78;5396022;26;20420;-71
2024/04/23 01:38:38;;;;;;;;;;;;;;;4.02;nan;102442.34;5395129;26;19974;-72
2024/04/23 01:41:04;;;;;;;;;;;;;;;4.04;nan;102441.25;5365881;26;19933;-72
2024/04/23 01:43:30;;;;;;;;;;;;;;;3.92;nan;102428.94;5395253;26;19925;-71
2024/04/23 01:45:56;;;;;;;;;;;;;;;3.97;nan;102429.44;5381620;26;19925;-71
2024/04/23 01:48:22;;;;;;;;;;;;;;;3.95;nan;102433.16;5391703;26;19940;-72
2024/04/23 01:50:47;;;;;;;;;;;;;;;4.06;nan;102426.06;5395377;26;20366;-71
2024/04/23 01:53:12;;;;;;;;;;;;;;;3.96;nan;102411.78;5394700;26;19994;-71
2024/04/23 01:55:38;;;;;;;;;;;;;;;3.89;nan;102415.06;5393178;26;20286;-72
2024/04/23 01:58:03;;;;;;;;;;;;;;;3.83;nan;102413.69;5371170;26;19933;-71
2024/04/23 02:00:30;;;;;;;;;;;;;;;3.93;nan;102412.03;5367198;26;19937;-71
2024/04/23 02:02:56;;;;;;;;;;;;;;;3.74;nan;102415.25;5392812;26;19934;-71
2024/04/23 02:05:22;;;;;;;;;;;;;;;3.75;nan;102419.56;5369652;26;19963;-71
2024/04/23 02:07:47;;;;;;;;;;;;;;;3.64;nan;102414.22;5393345;26;19925;-71
2024/04/23 02:10:13;;;;;;;;;;;;;;;3.54;nan;102413.25;5363174;26;19925;-71
2024/04/23 02:12:38;;;;;;;;;;;;;;;3.54;nan;102408.78;5394736;26;20001;-71
2024/04/23 02:15:04;;;;;;;;;;;;;;;3.60;nan;102410.97;5391182;26;19933;-71
2024/04/23 02:17:29;;;;;;;;;;;;;;;3.58;nan;102412.03;5428630;21;19925;-78
2024/04/23 02:19:55;;;;;;;;;;;;;;;3.51;nan;102410.81;5437582;26;19944;-78
2024/04/23 02:22:20;;;;;;;;;;;;;;;3.38;nan;102406.44;5438708;26;19932;-78
2024/04/23 02:24:45;;;;;;;;;;;;;;;2.84;nan;102303.47;5434714;26;20238;-77
2024/04/23 02:27:13;;;;;;;;;;;;;;;3.44;nan;102406.91;5434786;26;21583;-78
2024/04/23 02:29:41;;;;;;;;;;;;;;;3.46;nan;102397.03;5409943;26;19970;-78
2024/04/23 02:32:08;;;;;;;;;;;;;;;3.53;nan;102407.09;5411824;26;19932;-78
2024/04/23 02:34:34;;;;;;;;;;;;;;;3.40;nan;102401.00;5411885;26;19925;-78
2024/04/23 02:37:01;;;;;;;;;;;;;;;3.40;nan;102406.28;5417063;26;19924;-78
2024/04/23 02:39:27;;;;;;;;;;;;;;;3.56;nan;102401.56;5440238;26;19931;-78
2024/04/23 02:41:52;;;;;;;;;;;;;;;3.57;nan;102400.59;5413975;26;19924;-78
2024/04/23 02:44:18;;;;;;;;;;;;;;;3.58;nan;102388.16;5407548;26;19925;-78
2024/04/23 02:46:46;;;;;;;;;;;;;;;3.66;nan;102392.91;5414430;26;19936;-78
2024/04/23 02:49:14;;;;;;;;;;;;;;;3.63;nan;102393.97;5408506;26;19924;-77
2024/04/23 02:51:48;;;;;;;;;;;;;;;3.42;nan;102379.66;5441596;26;19932;-77
2024/04/23 02:54:13;;;;;;;;;;;;;;;3.45;nan;102384.75;5442258;26;19931;-77
2024/04/23 02:56:43;;;;;;;;;;;;;;;3.37;nan;102382.66;5412061;26;19925;-77
2024/04/23 02:59:08;;;;;;;;;;;;;;;3.33;nan;102384.69;5438131;26;19936;-77
2024/04/23 03:01:36;;;;;;;;;;;;;;;3.76;nan;102383.25;5411036;26;21004;-77
2024/04/23 03:04:06;;;;;;;;;;;;;;;3.71;nan;102378.31;5404000;26;19957;-77
2024/04/23 03:06:32;;;;;;;;;;;;;;;3.65;nan;102373.47;5413154;26;20000;-78
2024/04/23 03:08:58;;;;;;;;;;;;;;;3.68;nan;102369.75;5410124;26;19937;-78
2024/04/23 03:11:25;;;;;;;;;;;;;;;3.65;nan;102362.88;5414252;26;19993;-78
2024/04/23 03:13:51;;;;;;;;;;;;;;;3.93;nan;102368.72;5412767;26;19931;-78
2024/04/23 03:16:18;;;;;;;;;;;;;;;3.88;nan;102373.53;5412658;26;19925;-79
2024/04/23 03:18:44;;;;;;;;;;;;;;;3.93;nan;102372.19;5409992;26;19925;-78
2024/04/23 03:21:14;;;;;;;;;;;;;;;3.84;nan;102371.09;5405873;26;20729;-78
2024/04/23 03:23:39;;;;;;;;;;;;;;;3.85;nan;102361.34;5438558;26;19925;-77
2024/04/23 03:26:07;;;;;;;;;;;;;;;3.93;nan;102364.25;5403235;26;19932;-78
2024/04/23 03:28:32;;;;;;;;;;;;;;;4.19;nan;102364.03;5429532;26;19925;-80
2024/04/23 03:30:58;;;;;;;;;;;;;;;4.13;nan;102360.03;5432971;26;19932;-78
2024/04/23 03:33:25;;;;;;;;;;;;;;;4.19;nan;102354.25;5439312;26;19924;-79
2024/04/23 03:35:50;;;;;;;;;;;;;;;4.06;nan;102350.88;5410731;26;19925;-79
2024/04/23 03:38:15;;;;;;;;;;;;;;;4.18;nan;102362.34;5431161;26;19939;-79
2024/04/23 03:40:41;;;;;;;;;;;;;;;4.24;nan;102361.88;5405511;26;20226;-78
2024/04/23 03:43:06;;;;;;;;;;;;;;;4.12;nan;102347.75;5407872;26;20537;-78
2024/04/23 03:45:31;;;;;;;;;;;;;;;4.15;nan;102351.97;5436252;26;20447;-79
2024/04/23 03:47:59;;;;;;;;;;;;;;;4.16;nan;102354.50;5443677;26;20000;-79
2024/04/23 03:50:24;;;;;;;;;;;;;;;4.11;nan;102351.38;5414009;26;19979;-79
2024/04/23 03:52:53;;;;;;;;;;;;;;;4.24;nan;102351.25;5434992;26;19925;-77
2024/04/23 03:55:18;;;;;;;;;;;;;;;4.11;nan;102361.13;5413926;26;19931;-79
2024/04/23 03:57:43;;;;;;;;;;;;;;;4.16;nan;102357.16;5409887;26;19926;-80
2024/04/23 04:00:09;;;;;;;;;;;;;;;4.40;nan;102350.91;5416428;26;19932;-79
2024/04/23 04:08:05;;;;;;;;;;;;;;;4.15;nan;102350.16;5437148;26;20339;-78
2024/04/23 04:10:33;;;;;;;;;;;;;;;4.38;nan;102342.19;5407941;26;19925;-78
2024/04/23 04:12:58;;;;;;;;;;;;;;;4.48;nan;102336.03;5405397;26;19933;-79
2024/04/23 04:15:23;;;;;;;;;;;;;;;4.44;nan;102336.41;5438632;26;20325;-79
2024/04/23 04:17:51;;;;;;;;;;;;;;;4.59;nan;102339.63;5437810;26;20280;-78
2024/04/23 04:20:16;;;;;;;;;;;;;;;4.47;nan;102336.16;5438271;26;20277;-78
2024/04/23 04:22:41;;;;;;;;;;;;;;;4.29;nan;102333.97;5440058;26;19925;-78
2024/04/23 04:25:07;;;;;;;;;;;;;;;4.33;nan;102339.88;5435060;26;19925;-77
2024/04/23 04:27:32;;;;;;;;;;;;;;;4.33;nan;102331.09;5413806;26;19931;-77
2024/04/23 04:30:00;;;;;;;;;;;;;;;4.33;nan;102331.94;5437594;26;19932;-78
2024/04/23 04:32:25;;;;;;;;;;;;;;;4.40;nan;102327.84;5405080;26;19925;-78
2024/04/23 04:34:53;;;;;;;;;;;;;;;4.39;nan;102331.44;5404528;26;20268;-79
2024/04/23 04:37:18;;;;;;;;;;;;;;;4.39;nan;102333.25;5433960;26;19924;-79
2024/04/23 04:39:46;;;;;;;;;;;;;;;4.41;nan;102331.31;5441088;26;19935;-79
2024/04/23 04:42:13;;;;;;;;;;;;;;;4.27;nan;102340.38;5431232;26;20015;-78
2024/04/23 04:44:41;;;;;;;;;;;;;;;4.21;nan;102332.91;5402416;26;19924;-78
2024/04/23 04:47:07;;;;;;;;;;;;;;;4.19;nan;102337.47;5404007;26;19924;-77
2024/04/23 04:49:37;;;;;;;;;;;;;;;4.22;nan;102332.78;5443923;26;20378;-78
2024/04/23 04:52:05;;;;;;;;;;;;;;;4.42;nan;102328.53;5407020;26;19925;-78
2024/04/23 04:54:30;;;;;;;;;;;;;;;4.68;nan;102314.97;5438202;26;19932;-79
2024/04/23 04:56:55;;;;;;;;;;;;;;;4.78;nan;102315.94;5442961;26;19930;-78
2024/04/23 04:59:23;;;;;;;;;;;;;;;4.62;nan;102313.66;5433734;26;19989;-78
2024/04/23 05:01:48;;;;;;;;;;;;;;;4.65;nan;102318.72;5410420;26;19935;-78
2024/04/23 05:04:14;;;;;;;;;;;;;;;4.75;nan;102325.00;5407589;26;20270;-78
2024/04/23 05:06:39;;;;;;;;;;;;;;;4.66;nan;102323.09;5407893;26;19932;-78
2024/04/23 05:09:04;;;;;;;;;;;;;;;4.66;nan;102320.44;5436129;26;19936;-78
2024/04/23 05:11:32;;;;;;;;;;;;;;;4.69;nan;102325.50;5412347;26;19936;-79
2024/04/23 05:13:57;;;;;;;;;;;;;;;4.75;nan;102313.53;5412402;26;20386;-78
2024/04/23 05:16:28;;;;;;;;;;;;;;;4.83;nan;102310.22;5412520;26;19932;-78
2024/04/23 05:18:53;;;;;;;;;;;;;;;4.75;nan;102317.03;5438505;26;19931;-78
2024/04/23 05:21:18;;;;;;;;;;;;;;;4.87;nan;102306.34;5411041;26;19925;-78
2024/04/23 05:23:44;;;;;;;;;;;;;;;5.06;nan;102306.50;5436181;26;19931;-78
2024/04/23 05:26:11;;;;;;;;;;;;;;;5.01;nan;102303.41;5438582;26;20753;-79
2024/04/23 05:28:37;;;;;;;;;;;;;;;5.15;nan;102300.47;5415541;26;19924;-79
2024/04/23 05:33:46;;;;;;;;;;;;;;;5.65;nan;102306.00;5440612;26;19932;-78
2024/04/23 05:36:14;;;;;;;;;;;;;;;5.59;nan;102298.53;5415919;26;19932;-78
2024/04/23 05:38:41;;;;;;;;;;;;;;;5.73;nan;102294.69;5404813;26;19936;-78
2024/04/23 05:41:06;;;;;;;;;;;;;;;5.68;nan;102285.41;5436971;26;19934;-79
2024/04/23 05:43:34;;;;;;;;;;;;;;;5.49;nan;102286.13;5439743;26;20366;-78
2024/04/23 05:45:59;;;;;;;;;;;;;;;5.75;nan;102284.75;5438133;26;19933;-78
2024/04/23 05:48:43;;;;;;;;;;;;;;;5.78;nan;102288.97;5410936;26;20359;-78
2024/04/23 05:51:28;;;;;;;;;;;;;;;5.92;nan;102288.63;5435345;26;19944;-79
2024/04/23 05:54:11;;;;;;;;;;;;;;;5.96;nan;102292.75;5437305;26;19956;-78
2024/04/23 05:56:39;;;;;;;;;;;;;;;5.92;nan;102301.09;5438718;26;19953;-78
2024/04/23 05:59:06;;;;;;;;;;;;;;;5.76;nan;102298.91;5436366;26;19998;-78
2024/04/23 06:01:32;;;;;;;;;;;;;;;5.92;nan;102306.41;5435528;26;19925;-77
2024/04/23 06:03:59;;;;;;;;;;;;;;;5.84;nan;102297.28;5439796;26;19992;-78
2024/04/23 06:06:30;;;;;;;;;;;;;;;5.90;nan;102295.88;5408772;26;19926;-78
2024/04/23 06:08:55;;;;;;;;;;;;;;;6.03;nan;102293.06;5439497;26;19936;-78
2024/04/23 06:11:23;;;;;;;;;;;;;;;6.10;nan;102291.53;5434897;26;20373;-78
2024/04/23 06:14:04;;;;;;;;;;;;;;;6.04;nan;102295.56;5436120;26;19969;-78
2024/04/23 06:16:29;;;;;;;;;;;;;;;5.98;nan;102288.09;5404398;26;20592;-78
2024/04/23 06:18:57;;;;;;;;;;;;;;;5.97;nan;102289.09;5406315;26;19936;-78
2024/04/23 06:21:22;;;;;;;;;;;;;;;6.00;nan;102283.50;5412949;26;20463;-78
2024/04/23 06:23:50;;;;;;;;;;;;;;;6.04;nan;102281.41;5434110;26;19933;-78
2024/04/23 06:26:18;;;;;;;;;;;;;;;6.18;nan;102277.53;5436365;26;19936;-78
2024/04/23 06:28:43;;;;;;;;;;;;;;;6.14;nan;102281.47;5407472;26;20004;-78
2024/04/23 06:31:12;;;;;;;;;;;;;;;6.06;nan;102268.81;5434697;26;20386;-78
2024/04/23 06:33:37;;;;;;;;;;;;;;;6.24;nan;102277.00;5437645;26;19938;-78
2024/04/23 06:36:03;;;;;;;;;;;;;;;6.08;nan;102273.03;5437334;26;19924;-78
2024/04/23 06:38:28;;;;;;;;;;;;;;;6.18;nan;102272.22;5440913;26;19924;-78
2024/04/23 06:40:56;;;;;;;;;;;;;;;6.14;nan;102268.16;5412600;26;19932;-78
2024/04/23 06:43:23;;;;;;;;;;;;;;;6.30;nan;102271.13;5407841;26;19924;-78
2024/04/23 06:45:52;;;;;;;;;;;;;;;6.39;nan;102266.81;5409056;26;19990;-78
2024/04/23 06:48:18;;;;;;;;;;;;;;;6.38;nan;102262.47;5407181;26;19932;-78
2024/04/23 06:50:43;;;;;;;;;;;;;;;6.41;nan;102259.53;5407254;26;20306;-78
2024/04/23 06:53:11;;;;;;;;;;;;;;;6.32;nan;102261.19;5412134;26;19925;-78
2024/04/23 06:55:36;;;;;;;;;;;;;;;6.40;nan;102253.34;5435180;26;19955;-78
2024/04/23 06:58:02;;;;;;;;;;;;;;;6.55;nan;102251.13;5434190;26;20353;-78
2024/04/23 07:00:27;;;;;;;;;;;;;;;6.64;nan;102246.78;5435880;26;20263;-78
2024/04/23 07:02:52;;;;;;;;;;;;;;;6.65;nan;102246.66;5437723;26;19932;-78
2024/04/23 07:05:17;;;;;;;;;;;;;;;6.51;nan;102239.91;5437941;26;19952;-78
2024/04/23 07:07:43;;;;;;;;;;;;;;;6.64;nan;102246.78;5436837;26;19924;-78
2024/04/23 07:10:11;;;;;;;;;;;;;;;6.60;nan;102240.06;5435895;26;19925;-79
2024/04/23 07:12:36;;;;;;;;;;;;;;;6.64;nan;102236.97;5406067;26;19925;-78
2024/04/23 07:15:04;;;;;;;;;;;;;;;6.85;nan;102231.50;5437908;26;19982;-78
2024/04/23 07:17:29;;;;;;;;;;;;;;;6.65;nan;102230.66;5400955;26;20335;-78
2024/04/23 07:19:54;;;;;;;;;;;;;;;6.77;nan;102231.38;5432305;26;19924;-78
2024/04/23 07:22:20;;;;;;;;;;;;;;;6.84;nan;102234.31;5401083;26;19997;-78
2024/04/23 07:24:45;;;;;;;;;;;;;;;6.84;nan;102232.50;5402244;26;20362;-78
2024/04/23 07:27:10;;;;;;;;;;;;;;;6.86;nan;102227.03;5431840;26;19955;-79
2024/04/23 07:29:38;;;;;;;;;;;;;;;6.94;nan;102222.69;5430692;26;20532;-79
2024/04/23 07:32:03;;;;;;;;;;;;;;;6.90;nan;102213.25;5403149;26;19924;-78
2024/04/23 07:34:31;;;;;;;;;;;;;;;6.92;nan;102218.47;5401443;26;20356;-79
2024/04/23 07:36:59;;;;;;;;;;;;;;;7.05;nan;102208.31;5428514;26;19932;-78
2024/04/23 07:39:24;;;;;;;;;;;;;;;7.13;nan;102208.47;5431566;26;19932;-78
2024/04/23 07:41:49;;;;;;;;;;;;;;;7.06;nan;102201.16;5399260;26;20354;-79
2024/04/23 07:44:17;;;;;;;;;;;;;;;7.15;nan;102192.31;5431793;26;19925;-78
2024/04/23 07:46:43;;;;;;;;;;;;;;;7.35;nan;102188.63;5396406;26;19925;-78
2024/04/23 07:49:08;;;;;;;;;;;;;;;7.43;nan;102188.75;5399394;26;19925;-78
2024/04/23 07:51:33;;;;;;;;;;;;;;;7.29;nan;102189.22;5398098;26;19924;-79
2024/04/23 07:53:58;;;;;;;;;;;;;;;7.27;nan;102185.00;5400144;26;19929;-79
2024/04/23 07:56:24;;;;;;;5.37;3.23;;;;;;;4.91;nan;101853.13;5430533;26;19925;-78
2024/04/23 07:58:52;;;;;;;8.27;3.80;;;;;;;4.91;nan;101826.56;5426694;26;20573;-77
2024/04/23 08:01:18;;;;;;;7.73;3.90;;;;;;;4.23;nan;101681.13;5395709;26;20790;-78
2024/04/23 08:03:43;;;;;;;7.67;3.70;;;;;;;4.37;nan;101705.59;5396467;26;20512;-78
2024/04/23 08:06:09;;;;;;;6.30;3.13;;;;;;;4.00;nan;101667.25;5429754;26;20897;-78
2024/04/23 08:08:34;;;;;;;6.63;2.83;;;;;;;5.01;nan;101800.81;5429460;26;20244;-78
2024/04/23 08:11:01;;;;;;;4.83;2.67;;;;;;;5.47;nan;101880.91;5402462;26;20237;-78
2024/04/23 08:13:27;;;;;;;6.00;3.23;;;;;;;5.59;nan;101856.69;5393909;26;20267;-78
2024/04/23 08:15:56;;;;;;;6.10;2.80;;;;;;;5.83;nan;101938.78;5402770;26;20849;-78
2024/04/23 08:18:21;;;;;;;8.33;3.00;;;;;;;4.31;nan;101664.53;5456903;21;20545;-72
2024/04/23 08:20:47;;;;;;;7.30;3.83;;;;;;;7.42;nan;102167.53;5402229;26;20608;-72
2024/04/23 08:23:12;;;;;;;8.77;2.83;;;;;;;6.55;nan;102017.38;5421068;26;20283;-73
2024/04/23 08:25:37;;;;;;;6.40;3.60;;;;;;;7.02;nan;102097.41;5415677;26;20624;-72
2024/04/23 08:28:03;;;;;;;9.90;4.60;;;;;;;7.31;nan;102151.69;5417105;26;20246;-72
2024/04/23 08:30:28;;;;;;;8.23;3.00;;;;;;;7.17;nan;102152.97;5417317;26;20239;-72
2024/04/23 08:32:54;;;;;;;5.50;2.87;;;;;;;6.66;nan;102068.88;5419648;26;20256;-72
2024/04/23 08:35:19;;;;;;;6.53;2.90;;;;;;;7.08;nan;102148.50;5421629;26;20653;-72
2024/04/23 08:37:44;;;;;;;6.90;3.47;;;;;;;7.05;nan;102125.63;5423543;26;20331;-72
2024/04/23 08:40:10;;;;;;;5.87;3.10;;;;;;;6.89;nan;102072.88;5421843;26;20235;-72
2024/04/23 08:42:38;;;;;;;7.67;3.40;;;;;;;7.06;nan;102075.78;5425094;26;20288;-73
2024/04/23 08:45:08;;;;;;;6.13;3.50;;;;;;;6.23;nan;102001.72;5422300;26;20275;-72
2024/04/23 08:47:35;;;;;;;5.13;2.60;;;;;;;6.01;nan;101965.56;5419619;26;20877;-72
2024/04/23 08:50:02;;;;;;;6.77;4.03;;;;;;;7.12;nan;102133.91;5420620;26;20522;-73
2024/04/23 08:52:28;;;;;;;6.80;3.90;;;;;;;6.73;nan;102069.97;5423605;26;20478;-72
2024/04/23 08:54:54;;;;;;;9.37;3.27;;;;;;;6.25;nan;101974.91;5419326;26;20582;-72
2024/04/23 08:57:20;;;;;;;6.60;3.50;;;;;;;6.93;nan;102034.25;5420745;26;20886;-72
2024/04/23 08:59:46;;;;;;;5.57;2.67;;;;;;;7.28;nan;102053.22;5420441;26;20290;-72
2024/04/23 09:02:25;;;;;;;6.63;2.30;;;;;;;7.81;nan;102133.50;5418856;26;20597;-72
2024/04/23 09:04:54;;;;;;;7.40;2.80;;;;;;;7.29;nan;102045.09;5449210;26;21181;-72
2024/04/23 09:07:20;;;;;;;6.83;2.60;;;;;;;7.39;nan;102050.38;5422193;26;20591;-72
2024/04/23 09:09:46;;;;;;;5.63;2.60;;;;;;;7.32;nan;102070.63;5418193;26;20465;-72
2024/04/23 09:12:11;;;;;;;5.87;3.30;;;;;;;7.66;nan;102105.59;5419248;26;20670;-72
2024/04/23 09:14:36;;;;;;;6.73;2.90;;;;;;;7.31;nan;102085.78;5414400;26;20631;-72
2024/04/23 09:17:02;;;;;;;5.17;2.70;;;;;;;7.04;nan;102013.72;5421970;26;20356;-72
2024/04/23 09:19:30;;;;;;;5.40;2.80;;;;;;;6.90;nan;102055.88;5420196;26;20236;-72
2024/04/23 09:21:55;;;;;;;;;;;;;;;7.52;nan;102100.72;5423732;26;19930;-72
2024/04/23 09:24:24;;;;;;;5.00;2.40;;;;;;;7.05;nan;102023.41;5417876;26;19936;-73
2024/04/23 09:26:50;;;;;;;;;;;;;;;7.67;nan;102096.59;5420966;26;20232;-72
2024/04/23 09:29:15;;;;;;;5.87;2.70;;;;;;;7.75;nan;102077.13;5417445;26;19935;-72
2024/04/23 09:31:42;;;;;;;;;;;;;;;7.73;nan;102081.81;5421386;26;20244;-72
2024/04/23 09:34:10;;;;;;;;;;;;;;;7.58;nan;102076.97;5417317;26;19924;-73
2024/04/23 09:36:35;;;;;;;;;;;;;;;7.76;nan;102076.16;5420903;26;19924;-73
2024/04/23 09:39:04;;;;;;;;;;;;;;;8.10;nan;102060.28;5417245;26;20259;-72
2024/04/23 09:41:31;;;;;;;;;;;;;;;8.37;nan;102056.72;5422448;26;19929;-73
2024/04/23 09:43:57;;;;;;;;;;;;;;;8.47;nan;102059.31;5413807;26;19949;-73
2024/04/23 09:46:23;;;;;;;;;;;;;;;8.09;nan;102063.97;5416545;26;19967;-73
2024/04/23 09:48:52;;;;;;;;;;;;;;;8.44;nan;102052.44;5419715;26;19924;-71
2024/04/23 09:51:17;;;;;;;;;;;;;;;8.38;nan;102043.22;5418390;26;20036;-71
2024/04/23 09:53:47;;;;;;;;;;;;;;;8.26;nan;102055.09;5421098;26;19994;-70
2024/04/23 09:56:17;;;;;;;;;;;;;;;8.26;nan;102055.09;5449431;26;19947;-70
2024/04/23 09:58:42;;;;;;;;;;;;;;;7.94;nan;102061.00;5399175;26;19932;-70
2024/04/23 10:01:08;;;;;;;;;;;;;;;7.74;nan;102046.94;5415545;26;19997;-70
2024/04/23 10:03:34;;;;;;;;;;;;;;;7.81;nan;102050.69;5414749;26;20365;-70
2024/04/23 10:06:10;;;;;;;;;;;;;;;7.97;nan;102058.03;5418611;26;19931;-70
2024/04/23 10:08:44;;;;;;;;;;;;;;;8.05;nan;102047.41;5421544;26;20379;-72
2024/04/23 10:11:10;;;;;;;;;;;;;;;7.80;nan;102050.81;5422097;26;20023;-72
2024/04/23 10:13:41;;;;;;;;;;;;;;;7.97;nan;102047.34;5417991;26;20039;-72
2024/04/23 10:16:20;;;;;;;;;;;;;;;8.06;nan;102029.53;5416198;26;19937;-72
2024/04/23 10:18:51;;;;;;;;;;;;;;;8.02;nan;102023.66;5414601;26;19928;-72
2024/04/23 10:21:20;;;;;;;;;;;;;;;8.08;nan;102024.91;5413853;26;20377;-72
2024/04/23 10:23:46;;;;;;;;;;;;;;;8.07;nan;102025.88;5416972;26;19925;-72
2024/04/23 10:26:13;;;;;;;;;;;;;;;8.42;nan;102013.47;5421343;26;19932;-72
2024/04/23 10:28:39;;;;;;;;;;;;;;;8.36;nan;102009.56;5420872;26;19925;-72
2024/04/23 10:31:05;;;;;;;;;;;;;;;8.44;nan;102003.47;5419184;26;20283;-72
2024/04/23 10:33:31;;;;;;;;;;;;;;;8.45;nan;102005.19;5418908;26;19932;-72
2024/04/23 10:36:00;;;;;;;;;;;;;;;8.47;nan;102005.84;5421634;26;20079;-72
2024/04/23 10:38:27;;;;;;;;;;;;;;;7.90;nan;101998.19;5420887;26;20010;-72
2024/04/23 10:40:53;;;;;;;;;;;;;;;8.19;nan;101995.25;5416776;26;19931;-72
2024/04/23 10:43:19;;;;;;;;;;;;;;;8.17;nan;101989.22;5415091;26;19931;-72
2024/04/23 10:45:44;;;;;;;;;;;;;;;8.23;nan;101993.94;5420947;26;19926;-72
2024/04/23 10:48:10;;;;;;;;;;;;;;;8.10;nan;101986.34;5418396;26;19931;-72
2024/04/23 10:50:36;;;;;;;;;;;;;;;8.38;nan;101968.34;5418539;26;19951;-72
2024/04/23 10:53:02;;;;;;;;;;;;;;;8.34;nan;101966.13;5418577;26;19924;-72
2024/04/23 10:55:29;;;;;;;;;;;;;;;8.37;nan;101973.84;5419649;26;20308;-72
2024/04/23 10:57:55;;;;;;;;;;;;;;;8.25;nan;101967.06;5420121;26;19925;-72
2024/04/23 11:00:26;;;;;;;;;;;;;;;8.40;nan;101960.19;5415762;26;19932;-72
2024/04/23 11:02:52;;;;;;;;;;;;;;;8.44;nan;101956.19;5417401;26;19933;-72
2024/04/23 11:05:17;;;;;;;;;;;;;;;8.51;nan;101949.22;5418713;26;19955;-72
2024/04/23 11:07:49;;;;;;;;;;;;;;;8.46;nan;101940.00;5421718;26;19924;-72
2024/04/23 11:10:18;;;;;;;;;;;;;;;8.35;nan;101933.88;5419440;26;19931;-72
2024/04/23 11:12:44;;;;;;;;;;;;;;;8.44;nan;101934.81;5421038;26;19924;-72
2024/04/23 11:15:15;;;;;;;;;;;;;;;8.47;nan;101923.78;5419024;26;19939;-72
2024/04/23 11:17:40;;;;;;;;;;;;;;;8.62;nan;101920.53;5415492;26;19966;-73
2024/04/23 11:20:06;;;;;;;;;;;;;;;8.60;nan;101912.69;5416390;26;19936;-72
2024/04/23 11:22:43;;;;;;;;;;;;;;;8.47;nan;101909.59;5417748;26;19932;-72
2024/04/23 11:25:12;;;;;;;;;;;;;;;8.82;nan;101897.88;5414058;26;20895;-72
2024/04/23 11:27:38;;;;;;;;;;;;;;;9.15;nan;101896.16;5418366;26;19961;-72
2024/04/23 11:30:05;;;;;;;;;;;;;;;9.22;nan;101897.16;5413071;26;19932;-72
2024/04/23 11:32:31;;;;;;;;;;;;;;;9.27;nan;101886.81;5417345;26;19925;-72
2024/04/23 11:34:56;;;;;;;;;;;;;;;9.09;nan;101890.63;5416136;26;19935;-72
2024/04/23 11:37:21;;;;;;;;;;;;;;;9.22;nan;101880.28;5420184;26;19924;-72
2024/04/23 11:39:53;;;;;;;;;;;;;;;9.41;nan;101877.28;5415629;26;20025;-72
2024/04/23 11:42:18;;;;;;;;;;;;;;;9.44;nan;101870.78;5413963;26;20334;-72
2024/04/23 11:44:43;;;;;;;;;;;;;;;9.44;nan;101868.94;5415596;26;19931;-72
2024/04/23 11:47:11;;;;;;;;;;;;;;;9.42;nan;101864.75;5421170;26;19937;-72
2024/04/23 11:49:37;;;;;;;;;;;;;;;9.57;nan;101870.25;5419711;26;19983;-72
2024/04/23 11:52:04;;;;;;;;;;;;;;;9.57;nan;101873.78;5415211;26;21145;-72
2024/04/23 11:54:30;;;;;;;;;;;;;;;9.54;nan;101862.56;5414687;26;19924;-72
2024/04/23 11:56:55;;;;;;;;;;;;;;;9.57;nan;101863.06;5411653;26;20277;-72
2024/04/23 11:59:22;;;;;;;;;;;;;;;9.64;nan;101858.72;5413890;26;19925;-72
2024/04/23 12:01:48;;;;;;;;;;;;;;;10.05;nan;101856.00;5413754;26;19925;-73
2024/04/23 12:04:16;;;;;;;;;;;;;;;9.69;nan;101839.44;5411931;26;19932;-72
2024/04/23 12:06:42;;;;;;;;;;;;;;;9.95;nan;101841.94;5418607;26;20347;-72
2024/04/23 12:09:07;;;;;;;;;;;;;;;10.01;nan;101832.38;5412721;26;19924;-72
2024/04/23 12:11:33;;;;;;;;;;;;;;;10.04;nan;101826.69;5414751;26;19933;-72
2024/04/23 12:13:59;;;;;;;;;;;;;;;10.04;nan;101822.19;5412642;26;19952;-72
2024/04/23 12:16:24;;;;;;;;;;;;;;;10.19;nan;101812.41;5415792;26;19924;-72
2024/04/23 12:18:49;;;;;;;;;;;;;;;9.90;nan;101818.34;5418892;26;19925;-72
2024/04/23 12:21:15;;;;;;;;;;;;;;;10.01;nan;101810.94;5417628;26;19936;-72
2024/04/23 12:23:40;;;;;;;;;;;;;;;10.46;nan;101813.00;5418604;26;19936;-72
2024/04/23 12:26:08;;;;;;;;;;;;;;;10.29;nan;101804.19;5421814;26;19934;-72
2024/04/23 12:28:36;;;;;;;;;;;;;;;10.55;nan;101797.72;5427029;26;19936;-72
2024/04/23 12:31:01;;;;;;;;;;;;;;;10.60;nan;101801.53;5417426;26;20324;-72
2024/04/23 12:33:27;;;;;;;;;;;;;;;10.60;nan;101787.28;5419602;26;19993;-72
2024/04/23 12:36:02;;;;;;;;;;;;;;;10.39;nan;101793.28;5422465;26;19963;-72
2024/04/23 12:38:28;;;;;;;;;;;;;;;11.04;nan;101776.78;5417132;26;19967;-72
2024/04/23 12:40:53;;;;;;;;;;;;;;;10.87;nan;101775.22;5420614;26;19932;-72
2024/04/23 12:43:27;;;;;;;;;;;;;;;10.69;nan;101764.75;5418461;26;19945;-72
2024/04/23 12:45:52;;;;;;;;;;;;;;;10.70;nan;101766.44;5418500;26;19952;-72
2024/04/23 12:48:17;;;;;;;;;;;;;;;10.49;nan;101776.94;5419662;26;20408;-72
2024/04/23 12:50:43;;;;;;;;;;;;;;;10.46;nan;101763.91;5421041;26;19925;-72
2024/04/23 12:53:08;;;;;;;;;;;;;;;10.35;nan;101762.44;5417140;26;19934;-72
2024/04/23 12:55:33;;;;;;;;;;;;;;;10.45;nan;101754.19;5415409;26;20415;-72
2024/04/23 12:57:59;;;;;;;;;;;;;;;10.40;nan;101763.56;5413903;26;19925;-72
2024/04/23 13:00:25;;;;;;;;;;;;;;;10.44;nan;101757.84;5419606;26;19925;-72
2024/04/23 13:02:50;;;;;;;;;;;;;;;10.51;nan;101740.91;5417039;26;20062;-72